Terminal Aerodrome Forecast
Issued by NWS Jackson, MS

Home | Current Version | Previous Version | Text Only | Print | Product List | Glossary On
Versions: 1 2 3 4 5 6 7 8 9 10 11 12 13 14
000
FTUS44 KJAN 180548
TAFHBG
TAF
KHBG 180548Z 1806/1906 00000KT 1/4SM -DZ FG OVC003
     FM181500 00000KT 1/2SM FG VCSH OVC003
     FM181800 00000KT 5SM SHRA BR VCTS OVC005CB
     FM182100 00000KT 5SM SHRA VCTS OVC008CB
     FM190000 00000KT 3SM BR OVC003=

USA.gov is the U.S. government's official web portal to all federal, state and local government web resources and services.